Bevinsville, Kentucky
Current Conditions -  °F | °C
As of 4:35 AM on Sunday 26 Oct 2014 (Local Time) from KPBX Reporting Station
Clear Clear  
Wind Chill: 57°   Ceiling: Unl
Heat Index: 57°   Visibility: 10mi
Dew Point: 53°   Wind: 7mph
Humidity: 87%   Direction: 270°W
Pressure: 29.95"   Gusts: NA
Location:  37.37°N, 82.7°W
Report Text: KPBX 260835Z AUTO 27006KT 10SM CLR 14/12 A2995 RMK AO2 T01400119
Loading
Personal Weather Stations






























Interactive Weather Map
Tropical Storm Tracking
New forecast layout! Learn more

10-Day Weather Forecast

Advertisements
Track Severe Weather on mobile